Time;durP1;ratioP1;P1;durP2;ratioP2;P2;SDS_P1;SDS_P2;PMS_P1;PMS_P2;Temp;Humidity;BMP_temperature;BMP_pressure;BME280_temperature;BME280_humidity;BME280_pressure;Samples;Min_cycle;Max_cycle;Signal;HPM_P1;HPM_P2
2022/10/29 12:10:04;;;;;;;41.05;23.80;;;16.40;99.90;;;;;;5292479;22;20080;-71
2022/10/29 12:13:00;;;;;;;40.03;22.98;;;16.60;99.90;;;;;;4970413;28;20112;-75
2022/10/29 12:15:35;;;;;;;41.40;23.10;;;16.40;99.90;;;;;;4956837;28;20081;-72
2022/10/29 12:18:19;;;;;;;44.20;25.02;;;15.80;99.90;;;;;;4957301;28;20590;-77
2022/10/29 12:21:12;;;;;;;49.15;26.67;;;17.00;99.90;;;;;;4974164;28;20062;-73
2022/10/29 12:24:18;;;;;;;44.15;25.38;;;17.30;99.90;;;;;;4974117;28;20140;-74
2022/10/29 12:26:58;;;;;;;40.72;23.38;;;17.20;99.90;;;;;;4973598;28;20129;-74
2022/10/29 12:29:52;;;;;;;44.13;24.25;;;16.80;99.90;;;;;;4973811;28;20058;-75
2022/10/29 12:32:38;;;;;;;43.95;23.38;;;17.20;99.90;;;;;;4971200;28;20080;-75
2022/10/29 12:35:27;;;;;;;41.65;23.50;;;17.30;99.90;;;;;;4971908;28;20289;-72
2022/10/29 12:37:53;;;;;;;39.10;22.98;;;16.50;99.90;;;;;;4971097;28;20149;-73
2022/10/29 12:40:25;;;;;;;40.72;22.73;;;16.90;99.90;;;;;;4972609;28;20073;-75
2022/10/29 12:42:51;;;;;;;38.97;23.57;;;16.90;99.90;;;;;;4974574;28;20712;-74
2022/10/29 12:46:02;;;;;;;34.00;19.95;;;17.20;99.90;;;;;;4972624;28;20573;-73
2022/10/29 12:48:49;;;;;;;29.92;19.15;;;16.80;99.90;;;;;;4950589;28;20449;-72
2022/10/29 12:52:01;;;;;;;33.10;18.40;;;17.40;99.90;;;;;;4973023;28;20681;-71
2022/10/29 12:54:38;;;;;;;29.27;18.85;;;18.10;99.90;;;;;;4956585;28;20204;-73
2022/10/29 12:57:13;;;;;;;31.35;18.50;;;18.70;99.90;;;;;;4975423;28;20046;-71
2022/10/29 12:59:40;;;;;;;26.92;17.38;;;18.10;99.90;;;;;;4975437;28;20129;-73
2022/10/29 13:02:25;;;;;;;29.63;18.38;;;18.40;99.90;;;;;;4975685;28;20491;-75
2022/10/29 13:05:32;;;;;;;26.77;15.80;;;18.40;99.90;;;;;;4975265;28;20055;-75
2022/10/29 13:08:10;;;;;;;31.35;17.13;;;18.30;99.90;;;;;;4963664;28;20062;-74
2022/10/29 13:10:48;;;;;;;26.88;17.65;;;17.50;99.90;;;;;;4993404;28;20111;-72
2022/10/29 13:13:13;;;;;;;25.27;15.43;;;18.00;99.90;;;;;;4995620;28;20046;-77
2022/10/29 13:15:59;;;;;;;27.67;15.15;;;17.60;99.90;;;;;;4993935;28;20054;-72
2022/10/29 13:18:45;;;;;;;24.13;14.73;;;18.80;99.90;;;;;;4994158;28;20053;-75
2022/10/29 13:21:11;;;;;;;26.30;14.25;;;19.70;99.90;;;;;;4990498;28;20066;-73
2022/10/29 13:23:38;;;;;;;28.67;15.65;;;20.00;99.90;;;;;;4992150;28;20401;-73
2022/10/29 13:26:05;;;;;;;24.00;14.60;;;19.30;99.90;;;;;;4992358;28;20086;-73
2022/10/29 13:28:34;;;;;;;28.13;14.57;;;19.10;99.90;;;;;;4993338;28;20423;-74
2022/10/29 13:31:03;;;;;;;26.00;13.30;;;18.10;99.90;;;;;;4993152;28;20120;-74
2022/10/29 13:33:28;;;;;;;28.67;16.48;;;18.10;99.90;;;;;;4993541;28;20732;-74
2022/10/29 13:36:14;;;;;;;28.58;15.80;;;17.60;99.90;;;;;;4994918;28;20623;-73
2022/10/29 13:38:50;;;;;;;28.05;17.17;;;17.80;99.90;;;;;;4993280;28;20128;-74
2022/10/29 13:41:27;;;;;;;30.02;15.70;;;17.70;99.90;;;;;;4995007;28;20056;-73
2022/10/29 13:43:56;;;;;;;26.92;14.60;;;17.50;99.90;;;;;;4994070;28;20300;-74
2022/10/29 13:46:44;;;;;;;27.95;16.60;;;18.10;99.90;;;;;;4993746;28;20560;-73
2022/10/29 13:49:36;;;;;;;29.73;15.65;;;18.00;99.90;;;;;;4994553;28;20186;-73
2022/10/29 13:52:09;;;;;;;30.15;16.77;;;18.30;99.90;;;;;;4992462;28;20052;-73
2022/10/29 13:54:42;;;;;;;23.23;15.48;;;18.30;99.90;;;;;;4991132;28;20544;-73
2022/10/29 13:57:11;;;;;;;31.00;16.88;;;17.90;99.90;;;;;;4991468;28;20145;-74
2022/10/29 13:59:45;;;;;;;29.38;17.17;;;17.40;99.90;;;;;;4988441;28;20049;-74
2022/10/29 14:02:38;;;;;;;22.88;14.43;;;18.00;99.90;;;;;;4991349;28;20184;-73
2022/10/29 14:05:24;;;;;;;28.50;15.95;;;18.20;99.90;;;;;;4989306;28;20065;-73
2022/10/29 14:08:02;;;;;;;29.42;15.48;;;17.60;99.90;;;;;;4986667;28;20623;-72
2022/10/29 14:10:40;;;;;;;26.40;15.45;;;18.20;99.90;;;;;;4988006;28;20460;-69
2022/10/29 14:13:24;;;;;;;25.15;15.27;;;17.70;99.90;;;;;;4988760;28;20115;-72
2022/10/29 14:16:05;;;;;;;26.88;14.65;;;17.40;99.90;;;;;;4987751;28;20382;-73
2022/10/29 14:18:45;;;;;;;24.08;14.77;;;17.80;99.90;;;;;;4988471;28;20143;-72
2022/10/29 14:21:22;;;;;;;25.20;15.93;;;17.70;99.90;;;;;;4988853;28;20034;-76
2022/10/29 14:24:09;;;;;;;26.23;16.58;;;17.30;99.90;;;;;;4989075;28;20067;-73
2022/10/29 14:26:40;;;;;;;29.48;15.10;;;17.00;99.90;;;;;;4989011;28;20046;-73
2022/10/29 14:29:19;;;;;;;30.23;15.95;;;17.70;99.90;;;;;;4989525;28;20449;-72
2022/10/29 14:31:46;;;;;;;28.85;17.30;;;17.40;99.90;;;;;;4988058;28;20531;-73
2022/10/29 14:34:25;;;;;;;37.20;18.40;;;17.00;99.90;;;;;;4988524;28;20056;-70
2022/10/29 14:36:55;;;;;;;31.90;17.60;;;16.90;99.90;;;;;;4975277;28;20042;-72
2022/10/29 14:39:37;;;;;;;27.20;16.50;;;17.00;99.90;;;;;;4988107;28;20054;-73
2022/10/29 14:42:05;;;;;;;31.15;16.73;;;17.10;99.90;;;;;;4988364;28;20042;-72
2022/10/29 14:44:32;;;;;;;32.47;18.35;;;17.60;99.90;;;;;;4988993;28;20054;-72
2022/10/29 14:47:01;;;;;;;28.50;17.08;;;17.30;99.90;;;;;;4989500;28;20068;-74
2022/10/29 14:49:27;;;;;;;26.27;15.50;;;16.90;99.90;;;;;;4987722;28;20045;-72
2022/10/29 14:51:58;;;;;;;30.45;16.02;;;17.10;99.90;;;;;;4987423;28;20054;-72
2022/10/29 14:54:27;;;;;;;32.22;17.10;;;17.00;99.90;;;;;;4970546;28;20060;-73
2022/10/29 14:57:00;;;;;;;29.90;16.38;;;16.90;99.90;;;;;;4986575;28;20704;-73
2022/10/29 14:59:27;;;;;;;;;;;16.90;99.90;;;;;;4988293;28;20585;-73
2022/10/29 15:01:56;;;;;;;29.42;16.60;;;17.70;99.90;;;;;;4988864;28;19929;-73
2022/10/29 15:04:28;;;;;;;26.95;16.98;;;17.10;99.90;;;;;;4989963;28;20046;-74
2022/10/29 15:07:14;;;;;;;31.83;17.98;;;16.80;99.90;;;;;;4988694;28;21070;-77
2022/10/29 15:09:44;;;;;;;34.53;18.67;;;17.40;99.90;;;;;;4970200;28;20146;-72
2022/10/29 15:12:22;;;;;;;32.25;18.80;;;17.50;99.90;;;;;;4970299;28;20253;-74
2022/10/29 15:14:53;;;;;;;28.88;17.15;;;16.50;99.90;;;;;;4969680;28;20497;-74
2022/10/29 15:17:27;;;;;;;31.25;18.35;;;16.50;99.90;;;;;;4952640;28;20105;-74
2022/10/29 15:19:57;;;;;;;31.48;18.65;;;16.50;99.90;;;;;;4970470;28;20485;-73
2022/10/29 15:22:36;;;;;;;32.08;18.50;;;16.50;99.90;;;;;;4970191;28;20112;-72
2022/10/29 15:25:06;;;;;;;30.70;17.73;;;16.50;99.90;;;;;;4969277;28;20116;-74
2022/10/29 15:27:34;;;;;;;31.05;16.85;;;16.40;99.90;;;;;;4969711;28;20382;-74
2022/10/29 15:30:00;;;;;;;29.92;17.10;;;17.40;99.90;;;;;;4969378;28;20081;-74
2022/10/29 15:32:27;;;;;;;30.40;17.42;;;17.50;99.90;;;;;;4968930;28;20185;-73
2022/10/29 15:34:55;;;;;;;36.47;18.65;;;17.30;99.90;;;;;;4969167;28;20065;-73
2022/10/29 15:37:42;;;;;;;31.73;17.33;;;16.60;99.90;;;;;;4968817;28;20050;-73
2022/10/29 15:40:12;;;;;;;34.78;17.70;;;16.60;99.90;;;;;;4969132;28;20405;-74
2022/10/29 15:42:37;;;;;;;30.65;18.23;;;17.70;99.90;;;;;;4970235;28;20054;-77
2022/10/29 15:45:06;;;;;;;32.42;17.40;;;17.70;99.90;;;;;;4969266;28;20054;-74
2022/10/29 15:47:34;;;;;;;34.17;17.48;;;17.10;99.90;;;;;;4969444;28;20558;-73
2022/10/29 15:50:00;;;;;;;33.38;16.73;;;16.90;99.90;;;;;;4972224;28;20461;-74
2022/10/29 15:52:44;;;;;;;31.23;16.90;;;17.00;99.90;;;;;;4969896;28;20057;-74
2022/10/29 15:55:31;;;;;;;30.25;16.52;;;17.60;99.90;;;;;;4969220;28;20109;-74
2022/10/29 15:58:08;;;;;;;29.30;17.38;;;17.10;99.90;;;;;;4970345;28;20057;-74
2022/10/29 16:00:34;;;;;;;31.25;16.95;;;17.80;99.90;;;;;;4970247;28;20042;-76
2022/10/29 16:03:15;;;;;;;32.95;18.30;;;17.50;99.90;;;;;;4952494;28;20412;-74
2022/10/29 16:05:42;;;;;;;31.27;17.73;;;17.50;99.90;;;;;;4969253;28;20550;-73
2022/10/29 16:08:40;;;;;;;31.70;17.52;;;16.70;99.90;;;;;;4968053;28;20124;-73
2022/10/29 16:11:11;;;;;;;28.83;17.52;;;16.80;99.90;;;;;;4962199;28;21159;-74
2022/10/29 16:13:36;;;;;;;31.65;17.95;;;16.70;99.90;;;;;;4970279;28;20042;-73
2022/10/29 16:16:02;;;;;;;29.23;17.80;;;17.40;99.90;;;;;;4968181;28;20058;-74
2022/10/29 16:18:28;;;;;;;32.95;18.15;;;16.40;99.90;;;;;;4969499;28;20046;-75
2022/10/29 16:21:00;;;;;;;33.63;18.80;;;16.70;99.90;;;;;;4968325;28;20038;-74
2022/10/29 16:23:26;;;;;;;33.77;17.73;;;16.40;99.90;;;;;;4969502;28;20094;-75
2022/10/29 16:25:52;;;;;;;33.17;17.65;;;16.40;99.90;;;;;;4968796;28;20042;-76
2022/10/29 16:28:18;;;;;;;29.63;18.05;;;16.30;99.90;;;;;;4968242;28;20057;-74
2022/10/29 16:30:51;;;;;;;33.85;18.92;;;16.80;99.90;;;;;;4969273;28;20045;-75
2022/10/29 16:33:18;;;;;;;36.85;18.55;;;17.40;99.90;;;;;;4968109;28;20098;-74
2022/10/29 16:35:46;;;;;;;37.35;18.25;;;16.20;99.90;;;;;;4969577;28;20058;-77
2022/10/29 16:38:12;;;;;;;33.53;19.00;;;16.90;99.90;;;;;;4968545;28;20690;-74
2022/10/29 16:40:38;;;;;;;30.08;18.50;;;17.40;99.90;;;;;;4969892;28;20050;-73
2022/10/29 16:43:04;;;;;;;30.83;17.85;;;16.40;99.90;;;;;;4968311;28;20139;-74
2022/10/29 16:45:30;;;;;;;35.50;19.55;;;16.70;99.90;;;;;;4968148;28;20502;-73
2022/10/29 16:47:57;;;;;;;33.45;19.40;;;16.10;99.90;;;;;;4968082;28;20129;-73
2022/10/29 16:50:26;;;;;;;29.25;18.40;;;16.10;99.90;;;;;;4968332;28;20160;-73
2022/10/29 16:53:00;;;;;;;30.42;19.35;;;16.10;99.90;;;;;;4968786;28;20556;-76
2022/10/29 16:55:27;;;;;;;37.15;18.35;;;17.10;99.90;;;;;;4969028;28;20413;-72
2022/10/29 16:57:53;;;;;;;33.53;18.25;;;16.50;99.90;;;;;;4971566;28;20577;-74
2022/10/29 17:00:19;;;;;;;31.27;19.00;;;16.70;99.90;;;;;;4971870;28;20042;-73
2022/10/29 17:02:44;;;;;;;33.47;18.65;;;16.40;99.90;;;;;;4971476;28;20050;-72
2022/10/29 17:05:11;;;;;;;41.53;18.98;;;16.40;99.90;;;;;;4952512;28;20611;-72
2022/10/29 17:07:37;;;;;;;31.23;18.30;;;16.90;99.90;;;;;;4970219;28;20257;-74
2022/10/29 17:10:03;;;;;;;34.05;18.95;;;17.10;99.90;;;;;;4967706;28;20073;-74
2022/10/29 17:12:29;;;;;;;31.92;19.42;;;17.30;99.90;;;;;;4969577;28;20665;-74
2022/10/29 17:14:55;;;;;;;32.58;18.35;;;16.90;99.90;;;;;;4969386;28;20714;-73
2022/10/29 17:17:21;;;;;;;31.02;18.15;;;17.40;99.90;;;;;;4969242;28;20047;-73
2022/10/29 17:19:46;;;;;;;29.85;17.98;;;16.60;99.90;;;;;;4969332;28;20073;-73
2022/10/29 17:22:14;;;;;;;24.27;15.90;;;16.40;99.90;;;;;;4968877;28;20551;-74
2022/10/29 17:24:42;;;;;;;30.67;17.80;;;16.40;99.90;;;;;;4967640;28;20445;-75
2022/10/29 17:27:08;;;;;;;33.42;17.85;;;17.40;99.90;;;;;;4968625;28;20212;-73
2022/10/29 17:29:34;;;;;;;28.88;16.80;;;16.50;99.90;;;;;;4951672;28;20125;-73
2022/10/29 17:32:00;;;;;;;29.58;18.30;;;17.30;99.90;;;;;;4969410;28;20054;-75
2022/10/29 17:34:25;;;;;;;28.55;17.13;;;17.30;99.90;;;;;;4970937;28;20596;-73
2022/10/29 17:36:52;;;;;;;31.58;18.10;;;16.00;99.90;;;;;;4968988;28;20596;-73
2022/10/29 17:39:19;;;;;;;28.83;17.13;;;15.90;99.90;;;;;;4970977;28;20062;-72
2022/10/29 17:41:45;;;;;;;27.58;16.95;;;17.10;99.90;;;;;;4972906;28;20148;-73
2022/10/29 17:44:11;;;;;;;32.75;17.73;;;16.20;99.90;;;;;;4973753;28;20568;-74
2022/10/29 17:46:37;;;;;;;33.20;18.17;;;16.00;99.90;;;;;;4973106;28;20065;-73
2022/10/29 17:49:03;;;;;;;27.48;16.85;;;16.10;99.90;;;;;;4973232;28;20089;-72
2022/10/29 17:51:29;;;;;;;33.50;17.63;;;15.90;99.90;;;;;;4974177;28;20053;-72
2022/10/29 17:53:55;;;;;;;27.60;16.00;;;17.10;99.90;;;;;;4975180;28;20058;-72
2022/10/29 17:56:21;;;;;;;26.23;15.60;;;17.20;99.90;;;;;;4973141;28;20096;-73
2022/10/29 17:58:46;;;;;;;25.17;15.48;;;16.60;99.90;;;;;;4972551;28;20060;-74
2022/10/29 18:01:12;;;;;;;29.77;15.90;;;17.30;99.90;;;;;;4971178;28;20100;-74
2022/10/29 18:03:38;;;;;;;30.13;16.30;;;16.20;99.90;;;;;;4972735;28;20050;-74
2022/10/29 18:06:06;;;;;;;26.42;15.90;;;16.30;99.90;;;;;;4971109;28;20081;-74
2022/10/29 18:08:35;;;;;;;34.00;15.98;;;17.00;99.90;;;;;;4970650;28;20061;-72
2022/10/29 18:11:22;;;;;;;25.50;15.40;;;16.90;99.90;;;;;;4971356;28;20066;-74
2022/10/29 18:13:49;;;;;;;25.00;14.10;;;16.50;99.90;;;;;;4970174;28;20104;-73
2022/10/29 18:16:19;;;;;;;25.25;14.63;;;17.00;99.90;;;;;;4972305;28;20563;-75
2022/10/29 18:18:47;;;;;;;25.60;15.25;;;17.50;99.90;;;;;;4970868;28;20549;-73
2022/10/29 18:21:15;;;;;;;23.23;14.30;;;16.60;99.90;;;;;;4970683;28;20061;-73
2022/10/29 18:23:44;;;;;;;29.02;15.10;;;16.30;99.90;;;;;;4970386;28;20065;-73
2022/10/29 18:26:34;;;;;;;22.08;13.20;;;17.30;99.90;;;;;;4972259;28;20101;-73
2022/10/29 18:29:05;;;;;;;25.73;14.10;;;17.40;99.90;;;;;;4972372;28;20076;-72
2022/10/29 18:31:31;;;;;;;24.70;15.13;;;16.90;99.90;;;;;;4973101;28;20564;-74
2022/10/29 18:33:58;;;;;;;24.42;14.70;;;17.30;99.90;;;;;;4973439;28;20196;-74
2022/10/29 18:36:24;;;;;;;27.75;14.55;;;16.70;99.90;;;;;;4971866;28;20050;-71
2022/10/29 18:38:51;;;;;;;22.02;13.77;;;17.30;99.90;;;;;;4971930;28;20069;-74
2022/10/29 18:41:18;;;;;;;26.92;13.93;;;17.10;99.90;;;;;;4971252;28;20046;-74
2022/10/29 18:43:43;;;;;;;25.23;13.50;;;17.30;99.90;;;;;;4953921;28;20156;-74
2022/10/29 18:46:09;;;;;;;24.23;14.65;;;17.10;99.90;;;;;;4969882;28;20575;-74
2022/10/29 18:48:37;;;;;;;20.33;12.88;;;16.20;99.90;;;;;;4953996;28;20054;-73
2022/10/29 18:51:06;;;;;;;24.15;13.18;;;16.70;99.90;;;;;;4970008;28;20061;-74
2022/10/29 18:53:32;;;;;;;24.88;13.38;;;16.20;99.90;;;;;;4971515;28;20113;-75
2022/10/29 18:55:58;;;;;;;23.38;13.05;;;16.30;99.90;;;;;;4969419;28;20418;-73
2022/10/29 18:58:24;;;;;;;24.02;14.32;;;17.10;99.90;;;;;;4969988;28;20624;-76
2022/10/29 19:00:49;;;;;;;28.88;13.32;;;17.30;99.90;;;;;;4969195;28;20056;-73
2022/10/29 19:03:15;;;;;;;20.83;12.93;;;16.90;99.90;;;;;;4969536;28;20579;-74
2022/10/29 19:05:42;;;;;;;22.30;12.43;;;16.80;99.90;;;;;;4969760;28;20050;-75
2022/10/29 19:08:08;;;;;;;22.00;13.10;;;16.30;99.90;;;;;;4971212;28;20102;-73
2022/10/29 19:10:39;;;;;;;25.35;12.77;;;17.30;99.90;;;;;;4968651;28;20497;-75
2022/10/29 19:13:06;;;;;;;26.33;12.93;;;16.20;99.90;;;;;;4970846;28;20350;-73
2022/10/29 19:15:34;;;;;;;26.17;13.55;;;17.00;99.90;;;;;;4969253;28;20188;-74
2022/10/29 19:18:00;;;;;;;23.77;12.75;;;17.20;99.90;;;;;;4970553;28;20050;-72
2022/10/29 19:20:27;;;;;;;26.75;13.60;;;16.50;99.90;;;;;;4970998;28;20088;-73
2022/10/29 19:22:54;;;;;;;21.75;12.75;;;16.80;99.90;;;;;;4969366;28;20224;-75
2022/10/29 19:25:20;;;;;;;23.88;13.07;;;16.80;99.90;;;;;;4969444;28;20151;-73
2022/10/29 19:27:46;;;;;;;23.08;11.85;;;16.80;99.90;;;;;;4970107;28;20136;-72
2022/10/29 19:30:12;;;;;;;21.30;12.45;;;17.10;99.90;;;;;;4970177;28;20077;-73
2022/10/29 19:32:38;;;;;;;24.08;13.40;;;16.10;99.90;;;;;;4969036;28;20042;-75
2022/10/29 19:35:04;;;;;;;23.83;12.40;;;16.10;99.90;;;;;;4953498;28;20046;-73
2022/10/29 19:37:29;;;;;;;22.02;12.45;;;16.00;99.90;;;;;;4969253;28;20480;-73
2022/10/29 19:39:55;;;;;;;23.70;12.57;;;16.60;99.90;;;;;;4969007;28;20038;-72
2022/10/29 19:42:21;;;;;;;21.63;12.45;;;16.30;99.90;;;;;;4970206;28;20065;-75
2022/10/29 19:44:46;;;;;;;23.35;12.80;;;16.40;99.90;;;;;;4970682;28;20050;-73
2022/10/29 19:47:12;;;;;;;24.85;12.85;;;16.10;99.90;;;;;;4969384;28;20061;-74
2022/10/29 19:49:38;;;;;;;23.27;13.02;;;16.80;99.90;;;;;;4971090;28;20046;-74
2022/10/29 19:52:03;;;;;;;23.15;12.60;;;15.80;99.90;;;;;;4970752;28;20837;-75
2022/10/29 19:54:29;;;;;;;25.55;13.82;;;16.50;99.90;;;;;;4969264;28;20409;-73
2022/10/29 19:56:55;;;;;;;30.33;13.48;;;16.50;99.90;;;;;;4970377;28;20061;-73
2022/10/29 19:59:20;;;;;;;24.70;14.20;;;16.60;99.90;;;;;;4970351;28;20054;-73
2022/10/29 20:01:47;;;;;;;22.27;13.00;;;16.60;99.90;;;;;;4970230;28;20105;-75
2022/10/29 20:04:13;;;;;;;21.90;13.40;;;15.80;99.90;;;;;;4970104;28;20054;-74
2022/10/29 20:06:39;;;;;;;20.75;13.27;;;16.60;99.90;;;;;;4968815;28;20108;-73
2022/10/29 20:09:05;;;;;;;23.98;13.90;;;15.60;99.90;;;;;;4951886;28;20061;-74
2022/10/29 20:11:31;;;;;;;23.02;13.30;;;15.50;99.90;;;;;;4968447;28;20046;-73
2022/10/29 20:13:56;;;;;;;25.65;14.02;;;16.40;99.90;;;;;;4968479;28;20048;-72
2022/10/29 20:16:22;;;;;;;27.20;15.35;;;16.40;99.90;;;;;;4969539;28;20871;-73
2022/10/29 20:18:48;;;;;;;36.90;20.73;;;16.20;99.90;;;;;;4969803;28;20046;-75
2022/10/29 20:21:15;;;;;;;27.67;16.08;;;15.30;99.90;;;;;;4969402;28;20437;-75
2022/10/29 20:23:41;;;;;;;27.15;15.25;;;15.80;99.90;;;;;;4968368;28;20552;-73
2022/10/29 20:26:07;;;;;;;24.75;15.20;;;14.90;99.90;;;;;;4963834;28;20058;-73
2022/10/29 20:28:33;;;;;;;27.92;15.90;;;15.80;99.90;;;;;;4967213;28;20450;-73
2022/10/29 20:31:18;;;;;;;22.13;14.68;;;15.00;99.90;;;;;;4968163;28;20042;-74
2022/10/29 20:33:51;;;;;;;28.65;17.08;;;15.50;99.90;;;;;;4970588;28;20229;-73
2022/10/29 20:36:17;;;;;;;26.77;16.38;;;14.80;99.90;;;;;;4969270;28;20397;-74
2022/10/29 20:38:46;;;;;;;31.75;17.65;;;15.40;99.90;;;;;;4969393;28;20050;-73
2022/10/29 20:41:12;;;;;;;36.42;18.73;;;15.10;99.90;;;;;;4969156;28;20093;-73
2022/10/29 20:43:37;;;;;;;31.23;19.58;;;14.30;99.90;;;;;;4953274;28;20145;-73
2022/10/29 20:46:03;;;;;;;37.47;20.05;;;15.00;99.90;;;;;;4970820;28;20053;-76
2022/10/29 20:48:29;;;;;;;32.28;20.10;;;14.30;99.90;;;;;;4970314;28;20061;-76
2022/10/29 20:50:55;;;;;;;33.40;19.50;;;14.60;99.90;;;;;;4952693;28;20085;-73
2022/10/29 20:53:21;;;;;;;32.75;20.40;;;14.60;99.90;;;;;;4985411;28;20050;-74
2022/10/29 20:55:50;;;;;;;29.77;19.15;;;14.80;99.90;;;;;;4970201;28;20047;-74
2022/10/29 20:58:17;;;;;;;32.95;18.00;;;14.30;99.90;;;;;;4970669;28;20061;-72
2022/10/29 21:00:43;;;;;;;27.50;17.52;;;15.20;99.90;;;;;;4969869;28;20054;-74
2022/10/29 21:03:12;;;;;;;31.98;17.40;;;14.60;99.90;;;;;;4968308;28;20438;-73
2022/10/29 21:05:37;;;;;;;31.40;17.45;;;14.60;99.90;;;;;;4968227;28;20141;-73
2022/10/29 21:08:03;;;;;;;28.60;16.85;;;14.40;99.90;;;;;;4969345;28;20051;-73
2022/10/29 21:10:29;;;;;;;31.30;17.83;;;15.40;99.90;;;;;;4967476;28;20065;-73
2022/10/29 21:12:55;;;;;;;23.15;15.25;;;14.90;99.90;;;;;;4968652;28;20806;-70
2022/10/29 21:15:20;;;;;;;25.15;16.02;;;14.60;99.90;;;;;;4971400;28;20054;-72
2022/10/29 21:17:46;;;;;;;27.90;15.23;;;15.10;99.90;;;;;;4971988;28;20058;-72
2022/10/29 21:20:11;;;;;;;31.17;16.00;;;15.50;99.90;;;;;;4971803;28;20042;-72
2022/10/29 21:22:37;;;;;;;29.27;16.38;;;15.80;99.90;;;;;;4972986;28;20042;-75
2022/10/29 21:25:03;;;;;;;24.95;15.77;;;14.90;99.90;;;;;;4955254;28;20470;-73
2022/10/29 21:27:29;;;;;;;26.73;15.40;;;15.50;99.90;;;;;;4971743;28;20117;-74
2022/10/29 21:29:54;;;;;;;24.45;15.50;;;15.70;99.90;;;;;;4971679;28;20054;-73
2022/10/29 21:32:20;;;;;;;25.33;14.40;;;15.40;99.90;;;;;;4972690;28;20527;-73
2022/10/29 21:34:46;;;;;;;24.30;14.63;;;14.90;99.90;;;;;;4971516;28;20554;-72
2022/10/29 21:37:11;;;;;;;24.50;14.27;;;15.70;99.90;;;;;;4971480;28;20120;-72
2022/10/29 21:39:37;;;;;;;28.33;14.02;;;15.40;99.90;;;;;;4972354;28;20706;-72
2022/10/29 21:42:03;;;;;;;25.40;14.90;;;14.90;99.90;;;;;;4972768;28;20105;-73
2022/10/29 21:44:28;;;;;;;28.63;13.65;;;15.20;99.90;;;;;;4971729;28;20569;-73
2022/10/29 21:46:54;;;;;;;25.23;13.57;;;15.70;99.90;;;;;;4971539;28;20418;-73
2022/10/29 21:49:20;;;;;;;28.98;12.95;;;15.00;99.90;;;;;;4972328;28;20149;-73
2022/10/29 21:51:47;;;;;;;23.00;12.45;;;15.20;99.90;;;;;;4971217;28;20704;-73
2022/10/29 21:54:12;;;;;;;19.80;11.13;;;15.90;99.90;;;;;;4971079;28;20719;-73
2022/10/29 21:56:38;;;;;;;21.35;11.30;;;15.90;99.90;;;;;;4972159;28;20050;-74
2022/10/29 21:59:04;;;;;;;21.42;10.55;;;15.20;99.90;;;;;;4939236;28;20553;-73
2022/10/29 22:01:30;;;;;;;17.67;10.57;;;16.10;99.90;;;;;;4970719;28;20756;-73
2022/10/29 22:03:55;;;;;;;15.07;9.18;;;15.90;99.90;;;;;;4972107;28;20050;-73
2022/10/29 22:06:24;;;;;;;18.38;8.70;;;15.70;99.90;;;;;;4970550;28;20133;-74
2022/10/29 22:08:55;;;;;;;17.75;9.20;;;16.00;99.90;;;;;;4971976;28;20141;-72
2022/10/29 22:11:21;;;;;;;20.88;8.85;;;16.10;99.90;;;;;;4972442;28;20142;-71
2022/10/29 22:13:46;;;;;;;21.73;8.00;;;16.20;99.90;;;;;;4971207;28;20520;-73
2022/10/29 22:16:12;;;;;;;19.77;7.93;;;16.50;99.90;;;;;;4971774;28;20105;-73
2022/10/29 22:18:38;;;;;;;18.17;7.43;;;16.30;99.90;;;;;;4971796;28;20517;-76
2022/10/29 22:21:16;;;;;;;20.92;7.88;;;16.40;99.90;;;;;;4972030;28;20138;-75
2022/10/29 22:23:48;;;;;;;18.98;7.30;;;16.80;99.90;;;;;;4971184;28;20070;-73
2022/10/29 22:26:15;;;;;;;19.27;8.18;;;16.50;99.90;;;;;;4971565;28;20108;-75
2022/10/29 22:28:42;;;;;;;19.73;8.70;;;16.90;99.90;;;;;;4970801;28;20088;-71
2022/10/29 22:31:08;;;;;;;15.18;8.27;;;16.90;99.90;;;;;;4971939;28;20136;-71
2022/10/29 22:33:34;;;;;;;18.05;8.90;;;16.80;99.90;;;;;;4970150;28;20523;-72
2022/10/29 22:36:13;;;;;;;16.92;8.80;;;16.40;99.90;;;;;;4970447;28;20080;-72
2022/10/29 22:38:39;;;;;;;19.23;9.10;;;16.70;99.90;;;;;;4971444;28;20383;-75
2022/10/29 22:41:14;;;;;;;17.08;9.27;;;16.50;99.90;;;;;;4970105;28;20101;-72
2022/10/29 22:43:39;;;;;;;16.00;9.35;;;16.20;99.90;;;;;;4970294;28;20662;-73
2022/10/29 22:46:06;;;;;;;17.88;9.43;;;16.50;99.90;;;;;;4971122;28;20286;-75
2022/10/29 22:48:32;;;;;;;22.27;10.13;;;16.40;99.90;;;;;;4969344;28;20051;-71
2022/10/29 22:51:08;;;;;;;21.55;9.98;;;16.10;99.90;;;;;;4967598;28;20291;-71
2022/10/29 22:53:34;;;;;;;19.75;10.30;;;15.90;99.90;;;;;;4969147;28;20049;-71
2022/10/29 22:56:00;;;;;;;23.77;10.65;;;16.00;99.90;;;;;;4968386;28;20046;-73
2022/10/29 22:58:27;;;;;;;21.80;10.90;;;16.20;99.90;;;;;;4950422;28;20046;-73
2022/10/29 23:01:01;;;;;;;22.60;11.00;;;15.80;99.90;;;;;;4967374;28;20084;-72
2022/10/29 23:03:26;;;;;;;20.33;10.65;;;16.10;99.90;;;;;;4967823;28;20038;-74
2022/10/29 23:05:56;;;;;;;22.63;10.98;;;15.80;99.90;;;;;;4967105;28;20060;-73
2022/10/29 23:08:23;;;;;;;29.80;12.57;;;15.20;99.90;;;;;;4968891;28;20042;-74
2022/10/29 23:10:48;;;;;;;21.35;12.55;;;15.60;99.90;;;;;;4967082;28;20080;-76
2022/10/29 23:13:14;;;;;;;23.05;11.45;;;15.60;99.90;;;;;;4966227;28;20042;-73
2022/10/29 23:15:48;;;;;;;22.90;11.35;;;15.50;99.90;;;;;;4965615;28;20081;-73
2022/10/29 23:18:14;;;;;;;22.25;12.27;;;15.60;99.90;;;;;;4966066;28;20046;-74
2022/10/29 23:20:40;;;;;;;23.10;12.27;;;15.00;99.90;;;;;;4966884;28;20609;-73
2022/10/29 23:23:06;;;;;;;24.05;11.88;;;14.90;99.90;;;;;;4966596;28;20250;-74
2022/10/29 23:25:31;;;;;;;19.15;11.07;;;14.80;99.90;;;;;;4967177;28;20700;-75
2022/10/29 23:27:57;;;;;;;22.33;11.95;;;15.20;99.90;;;;;;4967385;28;20861;-75
2022/10/29 23:30:23;;;;;;;18.67;11.95;;;15.30;99.90;;;;;;4967112;28;20049;-74
2022/10/29 23:32:48;;;;;;;25.25;12.23;;;14.70;99.90;;;;;;4965460;28;20058;-73
2022/10/29 23:35:14;;;;;;;18.50;12.30;;;14.60;99.90;;;;;;4965230;28;20684;-74
2022/10/29 23:37:40;;;;;;;19.85;12.35;;;14.90;99.90;;;;;;4966547;28;20154;-73
2022/10/29 23:40:06;;;;;;;20.02;12.90;;;14.50;99.90;;;;;;4966018;28;20129;-73
2022/10/29 23:42:32;;;;;;;26.38;13.10;;;14.60;99.90;;;;;;4969160;28;20054;-77
2022/10/29 23:44:57;;;;;;;26.90;12.77;;;14.90;99.90;;;;;;4968864;28;20104;-73
2022/10/29 23:47:23;;;;;;;19.83;12.70;;;14.80;99.90;;;;;;4969457;28;20057;-73
2022/10/29 23:49:49;;;;;;;24.88;12.93;;;14.30;99.90;;;;;;4969197;28;20058;-73
2022/10/29 23:52:14;;;;;;;23.60;12.60;;;14.70;99.90;;;;;;4968937;28;21190;-74
2022/10/29 23:54:40;;;;;;;22.02;11.90;;;14.60;99.90;;;;;;4969478;28;20043;-73
2022/10/29 23:57:06;;;;;;;25.27;13.38;;;14.80;99.90;;;;;;4965241;28;20784;-73
2022/10/29 23:59:31;;;;;;;24.90;13.00;;;14.70;99.90;;;;;;4966102;28;20478;-74
